sensor_id;sensor_type;location;lat;lon;timestamp;pressure;altitude;pressure_sealevel;temperature;humidity
9764;BME280;4921;43.214;27.936;2023-02-28T00:00:51;101992.91;;;10.87;79.81
9764;BME280;4921;43.214;27.936;2023-02-28T00:03:18;101996.38;;;10.87;79.88
9764;BME280;4921;43.214;27.936;2023-02-28T00:05:44;102015.91;;;10.83;80.25
9764;BME280;4921;43.214;27.936;2023-02-28T00:08:11;102015.66;;;10.58;83.67
9764;BME280;4921;43.214;27.936;2023-02-28T00:10:38;102002.50;;;10.42;84.39
9764;BME280;4921;43.214;27.936;2023-02-28T00:13:06;102000.94;;;10.24;87.38
9764;BME280;4921;43.214;27.936;2023-02-28T00:15:35;102012.44;;;10.37;87.00
9764;BME280;4921;43.214;27.936;2023-02-28T00:18:02;102022.53;;;10.60;85.00
9764;BME280;4921;43.214;27.936;2023-02-28T00:20:29;102028.59;;;10.61;84.33
9764;BME280;4921;43.214;27.936;2023-02-28T00:22:56;102014.13;;;10.38;86.49
9764;BME280;4921;43.214;27.936;2023-02-28T00:25:24;102012.50;;;10.51;84.96
9764;BME280;4921;43.214;27.936;2023-02-28T00:27:52;102011.41;;;10.55;84.73
9764;BME280;4921;43.214;27.936;2023-02-28T00:30:20;102014.13;;;10.54;83.87
9764;BME280;4921;43.214;27.936;2023-02-28T00:32:50;102015.16;;;10.36;87.37
9764;BME280;4921;43.214;27.936;2023-02-28T00:35:17;102011.16;;;10.29;86.34
9764;BME280;4921;43.214;27.936;2023-02-28T00:37:44;102007.53;;;10.31;86.75
9764;BME280;4921;43.214;27.936;2023-02-28T00:40:11;102006.50;;;10.34;87.85
9764;BME280;4921;43.214;27.936;2023-02-28T00:42:39;102005.75;;;10.47;86.97
9764;BME280;4921;43.214;27.936;2023-02-28T00:45:06;102002.25;;;10.31;87.95
9764;BME280;4921;43.214;27.936;2023-02-28T00:47:34;102004.53;;;10.37;88.12
9764;BME280;4921;43.214;27.936;2023-02-28T00:50:03;102013.00;;;10.58;84.94
9764;BME280;4921;43.214;27.936;2023-02-28T00:52:30;102013.66;;;10.61;83.82
9764;BME280;4921;43.214;27.936;2023-02-28T00:54:57;102011.66;;;10.35;85.96
9764;BME280;4921;43.214;27.936;2023-02-28T00:57:24;102015.06;;;10.37;86.61
9764;BME280;4921;43.214;27.936;2023-02-28T00:59:51;102002.88;;;10.36;86.76
9764;BME280;4921;43.214;27.936;2023-02-28T01:02:20;102001.09;;;10.37;86.28
9764;BME280;4921;43.214;27.936;2023-02-28T01:04:47;101994.38;;;10.31;87.13
9764;BME280;4921;43.214;27.936;2023-02-28T01:07:15;102003.47;;;10.26;87.13
9764;BME280;4921;43.214;27.936;2023-02-28T01:09:42;102011.47;;;10.07;89.08
9764;BME280;4921;43.214;27.936;2023-02-28T01:12:09;102019.31;;;10.09;88.65
9764;BME280;4921;43.214;27.936;2023-02-28T01:14:36;102035.06;;;10.09;89.28
9764;BME280;4921;43.214;27.936;2023-02-28T01:17:04;102043.56;;;10.29;86.90
9764;BME280;4921;43.214;27.936;2023-02-28T01:19:31;102054.50;;;10.53;85.59
9764;BME280;4921;43.214;27.936;2023-02-28T01:22:00;102059.59;;;10.56;84.27
9764;BME280;4921;43.214;27.936;2023-02-28T01:24:29;102048.47;;;10.51;84.85
9764;BME280;4921;43.214;27.936;2023-02-28T01:26:56;102040.44;;;10.38;84.55
9764;BME280;4921;43.214;27.936;2023-02-28T01:29:23;102047.06;;;10.30;86.92
9764;BME280;4921;43.214;27.936;2023-02-28T01:31:50;102056.06;;;10.41;86.41
9764;BME280;4921;43.214;27.936;2023-02-28T01:34:17;102057.81;;;10.56;84.58
9764;BME280;4921;43.214;27.936;2023-02-28T01:36:44;102044.22;;;10.48;83.59
9764;BME280;4921;43.214;27.936;2023-02-28T01:39:12;102047.81;;;10.32;86.54
9764;BME280;4921;43.214;27.936;2023-02-28T01:41:40;102036.38;;;10.33;86.12
9764;BME280;4921;43.214;27.936;2023-02-28T01:47:08;102035.03;;;10.26;86.90
9764;BME280;4921;43.214;27.936;2023-02-28T01:49:36;102043.56;;;10.45;85.28
9764;BME280;4921;43.214;27.936;2023-02-28T01:52:03;102046.56;;;10.39;84.94
9764;BME280;4921;43.214;27.936;2023-02-28T01:54:31;102028.25;;;10.22;84.50
9764;BME280;4921;43.214;27.936;2023-02-28T01:57:04;102051.28;;;10.17;86.27
9764;BME280;4921;43.214;27.936;2023-02-28T01:59:40;102046.28;;;10.12;86.11
9764;BME280;4921;43.214;27.936;2023-02-28T02:02:11;102046.47;;;9.92;88.55
9764;BME280;4921;43.214;27.936;2023-02-28T02:04:41;102067.53;;;10.08;87.49
9764;BME280;4921;43.214;27.936;2023-02-28T02:07:13;102053.22;;;10.29;85.56
9764;BME280;4921;43.214;27.936;2023-02-28T02:09:41;102049.56;;;10.00;88.82
9764;BME280;4921;43.214;27.936;2023-02-28T02:12:17;102041.50;;;9.87;92.09
9764;BME280;4921;43.214;27.936;2023-02-28T02:15:00;102049.53;;;10.17;89.12
9764;BME280;4921;43.214;27.936;2023-02-28T02:17:34;102059.31;;;9.98;89.77
9764;BME280;4921;43.214;27.936;2023-02-28T02:20:24;102070.34;;;10.05;89.37
9764;BME280;4921;43.214;27.936;2023-02-28T02:23:18;102075.56;;;10.22;87.66
9764;BME280;4921;43.214;27.936;2023-02-28T02:25:54;102068.16;;;10.13;86.27
9764;BME280;4921;43.214;27.936;2023-02-28T02:28:39;102060.81;;;10.19;85.12
9764;BME280;4921;43.214;27.936;2023-02-28T02:31:36;102050.38;;;10.18;83.88
9764;BME280;4921;43.214;27.936;2023-02-28T02:34:28;102048.03;;;9.96;86.53
9764;BME280;4921;43.214;27.936;2023-02-28T02:37:05;102052.25;;;9.83;87.87
9764;BME280;4921;43.214;27.936;2023-02-28T02:39:40;102065.34;;;10.00;86.84
9764;BME280;4921;43.214;27.936;2023-02-28T02:42:14;102053.88;;;10.01;86.12
9764;BME280;4921;43.214;27.936;2023-02-28T02:44:46;102034.97;;;9.79;87.62
9764;BME280;4921;43.214;27.936;2023-02-28T02:47:18;102051.88;;;9.73;89.23
9764;BME280;4921;43.214;27.936;2023-02-28T02:49:50;102068.41;;;9.75;87.91
9764;BME280;4921;43.214;27.936;2023-02-28T02:52:23;102079.81;;;9.91;86.68
9764;BME280;4921;43.214;27.936;2023-02-28T02:54:55;102076.19;;;9.94;85.47
9764;BME280;4921;43.214;27.936;2023-02-28T02:57:27;102062.66;;;9.84;85.33
9764;BME280;4921;43.214;27.936;2023-02-28T02:59:57;102065.09;;;9.72;87.59
9764;BME280;4921;43.214;27.936;2023-02-28T03:02:26;102062.44;;;9.56;87.20
9764;BME280;4921;43.214;27.936;2023-02-28T03:05:04;102054.16;;;9.47;88.28
9764;BME280;4921;43.214;27.936;2023-02-28T03:07:33;102074.56;;;9.59;88.04
9764;BME280;4921;43.214;27.936;2023-02-28T03:10:00;102077.91;;;9.78;85.47
9764;BME280;4921;43.214;27.936;2023-02-28T03:12:40;102093.75;;;9.76;86.69
9764;BME280;4921;43.214;27.936;2023-02-28T03:15:11;102092.94;;;9.91;85.49
9764;BME280;4921;43.214;27.936;2023-02-28T03:17:50;102105.84;;;9.96;84.29
9764;BME280;4921;43.214;27.936;2023-02-28T03:20:27;102132.78;;;9.67;86.44
9764;BME280;4921;43.214;27.936;2023-02-28T03:23:07;102121.81;;;9.76;85.45
9764;BME280;4921;43.214;27.936;2023-02-28T03:25:46;102108.28;;;9.66;85.68
9764;BME280;4921;43.214;27.936;2023-02-28T03:28:19;102090.66;;;9.36;87.83
9764;BME280;4921;43.214;27.936;2023-02-28T03:30:52;102078.66;;;9.30;89.06
9764;BME280;4921;43.214;27.936;2023-02-28T03:33:23;102074.91;;;9.36;90.02
9764;BME280;4921;43.214;27.936;2023-02-28T03:35:57;102084.69;;;9.32;89.92
9764;BME280;4921;43.214;27.936;2023-02-28T03:38:29;102089.56;;;9.40;88.70
9764;BME280;4921;43.214;27.936;2023-02-28T03:41:02;102085.81;;;9.61;87.63
9764;BME280;4921;43.214;27.936;2023-02-28T03:43:36;102093.63;;;9.62;86.42
9764;BME280;4921;43.214;27.936;2023-02-28T03:46:09;102093.94;;;9.56;87.64
9764;BME280;4921;43.214;27.936;2023-02-28T03:48:39;102085.00;;;9.43;87.31
9764;BME280;4921;43.214;27.936;2023-02-28T03:51:11;102094.28;;;9.33;90.36
9764;BME280;4921;43.214;27.936;2023-02-28T03:53:44;102110.03;;;9.33;90.20
9764;BME280;4921;43.214;27.936;2023-02-28T03:56:15;102127.00;;;9.43;90.26
9764;BME280;4921;43.214;27.936;2023-02-28T03:58:47;102128.44;;;9.14;91.97
9764;BME280;4921;43.214;27.936;2023-02-28T04:01:20;102124.28;;;9.10;92.88
9764;BME280;4921;43.214;27.936;2023-02-28T04:03:49;102132.16;;;9.10;93.44
9764;BME280;4921;43.214;27.936;2023-02-28T04:06:20;102125.06;;;9.12;93.91
9764;BME280;4921;43.214;27.936;2023-02-28T04:08:47;102111.31;;;9.07;94.10
9764;BME280;4921;43.214;27.936;2023-02-28T04:11:21;102102.59;;;9.24;90.27
9764;BME280;4921;43.214;27.936;2023-02-28T04:13:48;102094.66;;;9.26;91.49
9764;BME280;4921;43.214;27.936;2023-02-28T04:16:16;102101.22;;;9.34;90.75
9764;BME280;4921;43.214;27.936;2023-02-28T04:18:43;102112.25;;;9.41;89.22
9764;BME280;4921;43.214;27.936;2023-02-28T04:21:10;102117.72;;;9.53;88.75
9764;BME280;4921;43.214;27.936;2023-02-28T04:23:39;102120.91;;;9.43;87.89
9764;BME280;4921;43.214;27.936;2023-02-28T04:26:06;102105.31;;;9.23;90.14
9764;BME280;4921;43.214;27.936;2023-02-28T04:28:33;102096.81;;;9.17;91.42
9764;BME280;4921;43.214;27.936;2023-02-28T04:31:02;102104.53;;;9.03;92.93
9764;BME280;4921;43.214;27.936;2023-02-28T04:33:30;102105.38;;;9.21;90.88
9764;BME280;4921;43.214;27.936;2023-02-28T04:35:59;102096.50;;;9.23;90.49
9764;BME280;4921;43.214;27.936;2023-02-28T04:38:26;102090.47;;;9.39;88.34
9764;BME280;4921;43.214;27.936;2023-02-28T04:40:57;102097.50;;;9.55;87.92
9764;BME280;4921;43.214;27.936;2023-02-28T04:43:24;102088.06;;;9.51;87.46
9764;BME280;4921;43.214;27.936;2023-02-28T04:45:52;102077.03;;;9.45;88.45
9764;BME280;4921;43.214;27.936;2023-02-28T04:48:19;102074.03;;;9.52;87.38
9764;BME280;4921;43.214;27.936;2023-02-28T04:50:46;102077.94;;;9.61;86.60
9764;BME280;4921;43.214;27.936;2023-02-28T04:53:13;102082.53;;;9.57;86.98
9764;BME280;4921;43.214;27.936;2023-02-28T04:55:41;102087.16;;;9.52;86.78
9764;BME280;4921;43.214;27.936;2023-02-28T04:58:09;102092.72;;;9.46;86.96
9764;BME280;4921;43.214;27.936;2023-02-28T05:00:36;102097.28;;;9.26;90.66
9764;BME280;4921;43.214;27.936;2023-02-28T05:03:03;102091.41;;;9.38;89.28
9764;BME280;4921;43.214;27.936;2023-02-28T05:05:30;102078.34;;;9.19;90.80
9764;BME280;4921;43.214;27.936;2023-02-28T05:07:57;102099.75;;;9.29;91.05
9764;BME280;4921;43.214;27.936;2023-02-28T05:10:25;102117.50;;;9.23;91.32
9764;BME280;4921;43.214;27.936;2023-02-28T05:12:51;102107.31;;;9.00;95.62
9764;BME280;4921;43.214;27.936;2023-02-28T05:15:20;102091.38;;;8.86;97.71
9764;BME280;4921;43.214;27.936;2023-02-28T05:17:47;102089.38;;;8.91;98.31
9764;BME280;4921;43.214;27.936;2023-02-28T05:20:14;102101.19;;;9.00;97.16
9764;BME280;4921;43.214;27.936;2023-02-28T05:22:42;102121.59;;;9.12;96.12
9764;BME280;4921;43.214;27.936;2023-02-28T05:25:10;102116.00;;;8.84;100.00
9764;BME280;4921;43.214;27.936;2023-02-28T05:27:38;102112.56;;;9.00;99.22
9764;BME280;4921;43.214;27.936;2023-02-28T05:30:07;102119.63;;;8.81;100.00
9764;BME280;4921;43.214;27.936;2023-02-28T05:32:37;102110.78;;;9.01;100.00
9764;BME280;4921;43.214;27.936;2023-02-28T05:35:05;102125.69;;;9.17;100.00
9764;BME280;4921;43.214;27.936;2023-02-28T05:37:32;102130.31;;;9.30;99.01
9764;BME280;4921;43.214;27.936;2023-02-28T05:39:59;102142.97;;;9.21;99.43
9764;BME280;4921;43.214;27.936;2023-02-28T05:42:26;102170.41;;;9.33;97.75
9764;BME280;4921;43.214;27.936;2023-02-28T05:44:53;102193.09;;;9.34;98.17
9764;BME280;4921;43.214;27.936;2023-02-28T05:47:20;102210.53;;;9.18;100.00
9764;BME280;4921;43.214;27.936;2023-02-28T05:49:48;102217.22;;;9.42;97.61
9764;BME280;4921;43.214;27.936;2023-02-28T05:52:15;102227.63;;;9.44;97.22
9764;BME280;4921;43.214;27.936;2023-02-28T05:54:42;102214.28;;;9.48;96.62
9764;BME280;4921;43.214;27.936;2023-02-28T05:57:09;102212.03;;;9.41;95.34
9764;BME280;4921;43.214;27.936;2023-02-28T05:59:36;102209.22;;;9.27;100.00
9764;BME280;4921;43.214;27.936;2023-02-28T06:02:05;102192.72;;;9.25;100.00
9764;BME280;4921;43.214;27.936;2023-02-28T06:04:32;102187.69;;;9.20;100.00
9764;BME280;4921;43.214;27.936;2023-02-28T06:07:01;102174.63;;;9.18;100.00
9764;BME280;4921;43.214;27.936;2023-02-28T06:09:29;102175.22;;;9.06;100.00
9764;BME280;4921;43.214;27.936;2023-02-28T06:11:57;102194.03;;;9.33;100.00
9764;BME280;4921;43.214;27.936;2023-02-28T06:14:24;102201.28;;;9.45;100.00
9764;BME280;4921;43.214;27.936;2023-02-28T06:16:52;102209.47;;;9.39;100.00
9764;BME280;4921;43.214;27.936;2023-02-28T06:19:19;102207.72;;;9.40;100.00
9764;BME280;4921;43.214;27.936;2023-02-28T06:21:48;102203.69;;;9.33;100.00
9764;BME280;4921;43.214;27.936;2023-02-28T06:24:17;102204.94;;;9.07;100.00
9764;BME280;4921;43.214;27.936;2023-02-28T06:26:45;102196.66;;;8.97;100.00
9764;BME280;4921;43.214;27.936;2023-02-28T06:29:12;102202.53;;;9.02;100.00
9764;BME280;4921;43.214;27.936;2023-02-28T06:31:42;102211.75;;;9.11;100.00
9764;BME280;4921;43.214;27.936;2023-02-28T06:34:10;102202.78;;;9.15;100.00
9764;BME280;4921;43.214;27.936;2023-02-28T06:36:37;102195.13;;;9.10;100.00
9764;BME280;4921;43.214;27.936;2023-02-28T06:39:04;102197.00;;;9.08;100.00
9764;BME280;4921;43.214;27.936;2023-02-28T06:41:33;102197.97;;;9.25;100.00
9764;BME280;4921;43.214;27.936;2023-02-28T06:44:03;102197.03;;;9.26;100.00
9764;BME280;4921;43.214;27.936;2023-02-28T06:46:31;102183.13;;;9.23;100.00
9764;BME280;4921;43.214;27.936;2023-02-28T06:48:58;102188.78;;;9.33;100.00
9764;BME280;4921;43.214;27.936;2023-02-28T06:51:25;102181.28;;;9.26;100.00
9764;BME280;4921;43.214;27.936;2023-02-28T06:53:52;102193.16;;;9.15;100.00
9764;BME280;4921;43.214;27.936;2023-02-28T06:56:19;102195.75;;;8.98;100.00
9764;BME280;4921;43.214;27.936;2023-02-28T06:58:49;102199.94;;;9.19;100.00
9764;BME280;4921;43.214;27.936;2023-02-28T07:01:18;102200.16;;;9.15;100.00
9764;BME280;4921;43.214;27.936;2023-02-28T07:03:46;102200.81;;;9.20;100.00
9764;BME280;4921;43.214;27.936;2023-02-28T07:06:17;102195.63;;;9.18;100.00
9764;BME280;4921;43.214;27.936;2023-02-28T07:08:44;102187.59;;;9.21;100.00
9764;BME280;4921;43.214;27.936;2023-02-28T07:11:11;102197.94;;;9.07;100.00
9764;BME280;4921;43.214;27.936;2023-02-28T07:13:38;102210.06;;;9.10;100.00
9764;BME280;4921;43.214;27.936;2023-02-28T07:16:10;102204.84;;;9.08;100.00
9764;BME280;4921;43.214;27.936;2023-02-28T07:18:37;102207.47;;;9.27;100.00
9764;BME280;4921;43.214;27.936;2023-02-28T07:21:06;102207.03;;;9.17;100.00
9764;BME280;4921;43.214;27.936;2023-02-28T07:23:33;102196.94;;;9.10;100.00
9764;BME280;4921;43.214;27.936;2023-02-28T07:26:00;102184.50;;;9.13;100.00
9764;BME280;4921;43.214;27.936;2023-02-28T07:28:27;102202.78;;;9.34;100.00
9764;BME280;4921;43.214;27.936;2023-02-28T07:30:54;102198.81;;;9.25;100.00
9764;BME280;4921;43.214;27.936;2023-02-28T07:33:23;102199.84;;;9.40;100.00
9764;BME280;4921;43.214;27.936;2023-02-28T07:35:50;102200.16;;;9.34;100.00
9764;BME280;4921;43.214;27.936;2023-02-28T07:38:17;102188.34;;;9.42;100.00
9764;BME280;4921;43.214;27.936;2023-02-28T07:40:44;102189.66;;;9.51;100.00
9764;BME280;4921;43.214;27.936;2023-02-28T07:43:11;102184.09;;;9.40;100.00
9764;BME280;4921;43.214;27.936;2023-02-28T07:45:38;102179.75;;;9.39;100.00
9764;BME280;4921;43.214;27.936;2023-02-28T07:48:05;102177.06;;;9.40;100.00
9764;BME280;4921;43.214;27.936;2023-02-28T07:50:36;102180.91;;;9.33;100.00
9764;BME280;4921;43.214;27.936;2023-02-28T07:53:03;102188.78;;;9.50;100.00
9764;BME280;4921;43.214;27.936;2023-02-28T07:55:30;102180.91;;;9.50;100.00
9764;BME280;4921;43.214;27.936;2023-02-28T07:57:57;102189.16;;;9.60;100.00
9764;BME280;4921;43.214;27.936;2023-02-28T08:00:25;102193.19;;;9.67;100.00
9764;BME280;4921;43.214;27.936;2023-02-28T08:02:52;102194.91;;;9.68;100.00
9764;BME280;4921;43.214;27.936;2023-02-28T08:05:19;102203.25;;;9.59;100.00
9764;BME280;4921;43.214;27.936;2023-02-28T08:07:48;102212.34;;;9.52;100.00
9764;BME280;4921;43.214;27.936;2023-02-28T08:10:16;102230.19;;;9.45;100.00
9764;BME280;4921;43.214;27.936;2023-02-28T08:12:42;102237.34;;;9.25;100.00
9764;BME280;4921;43.214;27.936;2023-02-28T08:15:10;102239.06;;;9.43;100.00
9764;BME280;4921;43.214;27.936;2023-02-28T08:17:37;102229.19;;;9.48;100.00
9764;BME280;4921;43.214;27.936;2023-02-28T08:20:05;102243.22;;;9.47;100.00
9764;BME280;4921;43.214;27.936;2023-02-28T08:22:32;102233.66;;;9.46;100.00
9764;BME280;4921;43.214;27.936;2023-02-28T08:25:00;102232.84;;;9.27;100.00
9764;BME280;4921;43.214;27.936;2023-02-28T08:27:27;102238.41;;;9.20;100.00
9764;BME280;4921;43.214;27.936;2023-02-28T08:29:54;102241.03;;;9.20;100.00
9764;BME280;4921;43.214;27.936;2023-02-28T08:32:21;102234.53;;;9.28;100.00
9764;BME280;4921;43.214;27.936;2023-02-28T08:34:48;102235.41;;;9.28;100.00
9764;BME280;4921;43.214;27.936;2023-02-28T08:37:15;102239.06;;;9.43;100.00
9764;BME280;4921;43.214;27.936;2023-02-28T08:39:42;102236.81;;;9.35;100.00
9764;BME280;4921;43.214;27.936;2023-02-28T08:42:10;102226.88;;;9.23;100.00
9764;BME280;4921;43.214;27.936;2023-02-28T08:44:37;102232.88;;;9.44;100.00
9764;BME280;4921;43.214;27.936;2023-02-28T08:47:05;102237.75;;;9.51;100.00
9764;BME280;4921;43.214;27.936;2023-02-28T08:49:32;102233.00;;;9.59;100.00
9764;BME280;4921;43.214;27.936;2023-02-28T08:51:59;102228.66;;;9.58;100.00
9764;BME280;4921;43.214;27.936;2023-02-28T08:54:26;102233.22;;;9.55;100.00
9764;BME280;4921;43.214;27.936;2023-02-28T08:56:56;102234.13;;;9.71;100.00
9764;BME280;4921;43.214;27.936;2023-02-28T08:59:24;102241.78;;;9.58;100.00
9764;BME280;4921;43.214;27.936;2023-02-28T09:01:51;102244.31;;;9.60;100.00
9764;BME280;4921;43.214;27.936;2023-02-28T09:04:18;102251.75;;;9.69;100.00
9764;BME280;4921;43.214;27.936;2023-02-28T09:06:45;102239.38;;;9.54;100.00
9764;BME280;4921;43.214;27.936;2023-02-28T09:09:14;102235.34;;;9.47;100.00
9764;BME280;4921;43.214;27.936;2023-02-28T09:11:41;102238.91;;;9.46;100.00
9764;BME280;4921;43.214;27.936;2023-02-28T09:14:08;102229.56;;;9.40;100.00
9764;BME280;4921;43.214;27.936;2023-02-28T09:16:37;102233.19;;;9.38;100.00
9764;BME280;4921;43.214;27.936;2023-02-28T09:19:04;102227.09;;;9.54;100.00
9764;BME280;4921;43.214;27.936;2023-02-28T09:21:31;102224.81;;;9.65;100.00
9764;BME280;4921;43.214;27.936;2023-02-28T09:23:58;102221.16;;;9.51;100.00
9764;BME280;4921;43.214;27.936;2023-02-28T09:26:26;102233.22;;;9.19;100.00
9764;BME280;4921;43.214;27.936;2023-02-28T09:28:53;102219.09;;;9.21;100.00
9764;BME280;4921;43.214;27.936;2023-02-28T09:31:22;102228.81;;;9.19;100.00
9764;BME280;4921;43.214;27.936;2023-02-28T09:33:53;102230.75;;;9.16;100.00
9764;BME280;4921;43.214;27.936;2023-02-28T09:36:21;102231.88;;;9.10;100.00
9764;BME280;4921;43.214;27.936;2023-02-28T09:38:48;102229.75;;;9.18;100.00
9764;BME280;4921;43.214;27.936;2023-02-28T09:41:18;102240.59;;;9.11;100.00
9764;BME280;4921;43.214;27.936;2023-02-28T09:43:47;102235.41;;;9.28;100.00
9764;BME280;4921;43.214;27.936;2023-02-28T09:46:26;102238.38;;;9.39;100.00
9764;BME280;4921;43.214;27.936;2023-02-28T09:48:56;102256.53;;;9.44;100.00
9764;BME280;4921;43.214;27.936;2023-02-28T09:51:33;102251.59;;;9.55;100.00
9764;BME280;4921;43.214;27.936;2023-02-28T09:54:02;102256.53;;;9.44;100.00
9764;BME280;4921;43.214;27.936;2023-02-28T09:56:33;102261.03;;;9.59;100.00
9764;BME280;4921;43.214;27.936;2023-02-28T09:59:10;102270.75;;;9.57;100.00
9764;BME280;4921;43.214;27.936;2023-02-28T10:01:47;102274.91;;;9.44;100.00
9764;BME280;4921;43.214;27.936;2023-02-28T10:04:35;102268.19;;;9.19;100.00
9764;BME280;4921;43.214;27.936;2023-02-28T10:07:17;102265.78;;;9.15;100.00
9764;BME280;4921;43.214;27.936;2023-02-28T10:09:47;102272.53;;;9.02;100.00
9764;BME280;4921;43.214;27.936;2023-02-28T10:12:17;102267.13;;;8.86;100.00
9764;BME280;4921;43.214;27.936;2023-02-28T10:14:47;102262.69;;;8.88;100.00
9764;BME280;4921;43.214;27.936;2023-02-28T10:17:19;102263.72;;;8.84;100.00
9764;BME280;4921;43.214;27.936;2023-02-28T10:19:56;102256.22;;;8.95;100.00
9764;BME280;4921;43.214;27.936;2023-02-28T10:22:28;102254.22;;;9.19;100.00
9764;BME280;4921;43.214;27.936;2023-02-28T10:24:57;102259.56;;;8.99;100.00
9764;BME280;4921;43.214;27.936;2023-02-28T10:27:30;102244.91;;;8.95;100.00
9764;BME280;4921;43.214;27.936;2023-02-28T10:29:59;102242.88;;;9.00;100.00
9764;BME280;4921;43.214;27.936;2023-02-28T10:32:29;102245.22;;;8.87;100.00
9764;BME280;4921;43.214;27.936;2023-02-28T10:35:01;102233.75;;;8.90;100.00
9764;BME280;4921;43.214;27.936;2023-02-28T10:37:33;102211.84;;;8.72;100.00
9764;BME280;4921;43.214;27.936;2023-02-28T10:40:04;102228.63;;;8.87;100.00
9764;BME280;4921;43.214;27.936;2023-02-28T10:42:32;102223.66;;;8.99;100.00
9764;BME280;4921;43.214;27.936;2023-02-28T10:45:06;102215.22;;;9.11;100.00
9764;BME280;4921;43.214;27.936;2023-02-28T10:47:34;102221.88;;;9.18;100.00
9764;BME280;4921;43.214;27.936;2023-02-28T10:50:29;102213.63;;;8.90;100.00
9764;BME280;4921;43.214;27.936;2023-02-28T10:53:10;102216.31;;;8.70;100.00
9764;BME280;4921;43.214;27.936;2023-02-28T10:55:40;102204.13;;;8.88;100.00
9764;BME280;4921;43.214;27.936;2023-02-28T10:58:20;102200.84;;;8.83;100.00
9764;BME280;4921;43.214;27.936;2023-02-28T11:00:48;102201.69;;;9.02;100.00
9764;BME280;4921;43.214;27.936;2023-02-28T11:03:24;102199.69;;;9.07;100.00
9764;BME280;4921;43.214;27.936;2023-02-28T11:05:53;102189.97;;;9.09;100.00
9764;BME280;4921;43.214;27.936;2023-02-28T11:08:20;102198.25;;;9.18;100.00
9764;BME280;4921;43.214;27.936;2023-02-28T11:10:54;102193.25;;;9.31;100.00
9764;BME280;4921;43.214;27.936;2023-02-28T11:13:26;102191.22;;;9.19;100.00
9764;BME280;4921;43.214;27.936;2023-02-28T11:15:55;102192.16;;;8.99;100.00
9764;BME280;4921;43.214;27.936;2023-02-28T11:18:27;102201.50;;;9.23;100.00
9764;BME280;4921;43.214;27.936;2023-02-28T11:20:58;102192.81;;;9.04;100.00
9764;BME280;4921;43.214;27.936;2023-02-28T11:23:29;102196.38;;;8.85;100.00
9764;BME280;4921;43.214;27.936;2023-02-28T11:25:59;102190.66;;;8.77;100.00
9764;BME280;4921;43.214;27.936;2023-02-28T11:28:29;102188.16;;;8.92;100.00
9764;BME280;4921;43.214;27.936;2023-02-28T11:31:05;102193.47;;;8.91;100.00
9764;BME280;4921;43.214;27.936;2023-02-28T11:33:40;102183.81;;;8.91;100.00
9764;BME280;4921;43.214;27.936;2023-02-28T11:36:13;102183.66;;;9.13;100.00
9764;BME280;4921;43.214;27.936;2023-02-28T11:38:41;102171.38;;;9.13;100.00
9764;BME280;4921;43.214;27.936;2023-02-28T11:41:24;102169.59;;;8.97;100.00
9764;BME280;4921;43.214;27.936;2023-02-28T11:44:15;102170.97;;;9.04;100.00
9764;BME280;4921;43.214;27.936;2023-02-28T11:46:49;102176.97;;;9.25;100.00
9764;BME280;4921;43.214;27.936;2023-02-28T11:49:32;102168.38;;;9.21;100.00
9764;BME280;4921;43.214;27.936;2023-02-28T11:52:15;102152.22;;;8.94;100.00
9764;BME280;4921;43.214;27.936;2023-02-28T11:55:11;102156.72;;;9.09;100.00
9764;BME280;4921;43.214;27.936;2023-02-28T11:58:02;102150.50;;;9.29;100.00
9764;BME280;4921;43.214;27.936;2023-02-28T12:00:39;102153.25;;;9.43;100.00
9764;BME280;4921;43.214;27.936;2023-02-28T12:03:18;102147.09;;;9.44;100.00
9764;BME280;4921;43.214;27.936;2023-02-28T12:05:57;102146.47;;;9.56;100.00
9764;BME280;4921;43.214;27.936;2023-02-28T12:08:41;102139.03;;;9.64;100.00
9764;BME280;4921;43.214;27.936;2023-02-28T12:11:13;102140.66;;;9.67;100.00
9764;BME280;4921;43.214;27.936;2023-02-28T12:13:50;102143.13;;;9.70;100.00
9764;BME280;4921;43.214;27.936;2023-02-28T12:16:40;102146.69;;;9.35;100.00
9764;BME280;4921;43.214;27.936;2023-02-28T12:19:19;102133.19;;;9.25;100.00
9764;BME280;4921;43.214;27.936;2023-02-28T12:22:03;102157.38;;;9.66;100.00
9764;BME280;4921;43.214;27.936;2023-02-28T12:24:50;102156.34;;;9.68;100.00
9764;BME280;4921;43.214;27.936;2023-02-28T12:27:23;102161.03;;;9.62;100.00
9764;BME280;4921;43.214;27.936;2023-02-28T12:29:54;102166.47;;;9.59;100.00
9764;BME280;4921;43.214;27.936;2023-02-28T12:32:26;102154.09;;;9.61;100.00
9764;BME280;4921;43.214;27.936;2023-02-28T12:35:00;102155.75;;;9.63;100.00
9764;BME280;4921;43.214;27.936;2023-02-28T12:37:31;102164.59;;;9.78;100.00
9764;BME280;4921;43.214;27.936;2023-02-28T12:40:04;102161.91;;;9.62;100.00
9764;BME280;4921;43.214;27.936;2023-02-28T12:42:39;102162.13;;;9.58;100.00
9764;BME280;4921;43.214;27.936;2023-02-28T12:45:11;102156.28;;;9.53;100.00
9764;BME280;4921;43.214;27.936;2023-02-28T12:47:43;102157.81;;;9.57;100.00
9764;BME280;4921;43.214;27.936;2023-02-28T12:50:12;102154.75;;;9.49;100.00
9764;BME280;4921;43.214;27.936;2023-02-28T12:52:46;102148.56;;;9.50;100.00
9764;BME280;4921;43.214;27.936;2023-02-28T12:55:21;102155.66;;;9.65;100.00
9764;BME280;4921;43.214;27.936;2023-02-28T12:57:57;102155.34;;;9.71;100.00
9764;BME280;4921;43.214;27.936;2023-02-28T13:00:32;102159.22;;;9.64;100.00
9764;BME280;4921;43.214;27.936;2023-02-28T13:03:24;102161.44;;;9.54;100.00
9764;BME280;4921;43.214;27.936;2023-02-28T13:06:25;102163.31;;;9.52;100.00
9764;BME280;4921;43.214;27.936;2023-02-28T13:09:02;102157.66;;;9.60;100.00
9764;BME280;4921;43.214;27.936;2023-02-28T13:11:38;102153.94;;;9.47;100.00
9764;BME280;4921;43.214;27.936;2023-02-28T13:14:23;102159.44;;;9.25;100.00
9764;BME280;4921;43.214;27.936;2023-02-28T13:16:56;102156.09;;;9.21;100.00
9764;BME280;4921;43.214;27.936;2023-02-28T13:19:25;102151.53;;;9.08;100.00
9764;BME280;4921;43.214;27.936;2023-02-28T13:21:54;102175.59;;;8.99;100.00
9764;BME280;4921;43.214;27.936;2023-02-28T13:24:43;102167.88;;;8.96;100.00